sensor_id;sensor_type;location;lat;lon;timestamp;pressure;altitude;pressure_sealevel;temperature;humidity
79612;BME280;69094;48.154;11.536;2023-05-07T00:00:08;95464.97;;;13.73;74.40
79612;BME280;69094;48.154;11.536;2023-05-07T00:02:34;95462.63;;;13.72;74.42
79612;BME280;69094;48.154;11.536;2023-05-07T00:05:01;95471.72;;;13.64;74.82
79612;BME280;69094;48.154;11.536;2023-05-07T00:07:27;95468.56;;;13.62;75.10
79612;BME280;69094;48.154;11.536;2023-05-07T00:09:52;95464.16;;;13.57;75.07
79612;BME280;69094;48.154;11.536;2023-05-07T00:12:18;95466.66;;;13.50;75.83
79612;BME280;69094;48.154;11.536;2023-05-07T00:14:43;95464.38;;;13.52;75.80
79612;BME280;69094;48.154;11.536;2023-05-07T00:17:08;95465.50;;;13.51;75.74
79612;BME280;69094;48.154;11.536;2023-05-07T00:19:34;95460.28;;;13.46;75.93
79612;BME280;69094;48.154;11.536;2023-05-07T00:21:59;95464.19;;;13.45;75.55
79612;BME280;69094;48.154;11.536;2023-05-07T00:24:25;95460.19;;;13.42;76.25
79612;BME280;69094;48.154;11.536;2023-05-07T00:26:50;95459.41;;;13.42;76.29
79612;BME280;69094;48.154;11.536;2023-05-07T00:29:16;95460.53;;;13.41;76.08
79612;BME280;69094;48.154;11.536;2023-05-07T00:31:41;95449.97;;;13.39;76.27
79612;BME280;69094;48.154;11.536;2023-05-07T00:34:06;95455.75;;;13.38;76.18
79612;BME280;69094;48.154;11.536;2023-05-07T00:36:32;95449.84;;;13.35;76.28
79612;BME280;69094;48.154;11.536;2023-05-07T00:38:59;95448.13;;;13.31;77.15
79612;BME280;69094;48.154;11.536;2023-05-07T00:41:25;95447.88;;;13.24;77.00
79612;BME280;69094;48.154;11.536;2023-05-07T00:43:51;95448.94;;;13.31;76.63
79612;BME280;69094;48.154;11.536;2023-05-07T00:46:18;95451.00;;;13.34;76.23
79612;BME280;69094;48.154;11.536;2023-05-07T00:48:45;95456.25;;;13.27;76.49
79612;BME280;69094;48.154;11.536;2023-05-07T00:51:10;95450.78;;;13.27;76.66
79612;BME280;69094;48.154;11.536;2023-05-07T00:53:37;95454.84;;;13.21;77.38
79612;BME280;69094;48.154;11.536;2023-05-07T00:56:03;95450.97;;;13.22;77.13
79612;BME280;69094;48.154;11.536;2023-05-07T00:58:29;95449.84;;;13.23;77.09
79612;BME280;69094;48.154;11.536;2023-05-07T01:00:55;95453.34;;;13.24;77.15
79612;BME280;69094;48.154;11.536;2023-05-07T01:03:21;95454.59;;;13.26;77.33
79612;BME280;69094;48.154;11.536;2023-05-07T01:05:47;95458.03;;;13.23;77.59
79612;BME280;69094;48.154;11.536;2023-05-07T01:08:14;95450.75;;;13.15;77.63
79612;BME280;69094;48.154;11.536;2023-05-07T01:10:40;95455.31;;;13.11;78.04
79612;BME280;69094;48.154;11.536;2023-05-07T01:13:09;95453.72;;;13.10;78.24
79612;BME280;69094;48.154;11.536;2023-05-07T01:15:35;95448.28;;;13.10;77.13
79612;BME280;69094;48.154;11.536;2023-05-07T01:18:01;95465.34;;;13.19;77.36
79612;BME280;69094;48.154;11.536;2023-05-07T01:20:27;95456.22;;;13.15;77.74
79612;BME280;69094;48.154;11.536;2023-05-07T01:22:53;95454.97;;;13.12;77.77
79612;BME280;69094;48.154;11.536;2023-05-07T01:25:19;95449.16;;;13.14;78.01
79612;BME280;69094;48.154;11.536;2023-05-07T01:27:45;95456.09;;;13.11;78.56
79612;BME280;69094;48.154;11.536;2023-05-07T01:30:11;95441.19;;;13.09;78.02
79612;BME280;69094;48.154;11.536;2023-05-07T01:32:48;95440.53;;;13.12;77.87
79612;BME280;69094;48.154;11.536;2023-05-07T01:35:19;95450.09;;;13.06;78.54
79612;BME280;69094;48.154;11.536;2023-05-07T01:37:48;95440.31;;;13.05;78.14
79612;BME280;69094;48.154;11.536;2023-05-07T01:40:14;95444.63;;;13.06;77.64
79612;BME280;69094;48.154;11.536;2023-05-07T01:42:41;95435.63;;;13.05;78.08
79612;BME280;69094;48.154;11.536;2023-05-07T01:45:08;95442.25;;;13.04;77.66
79612;BME280;69094;48.154;11.536;2023-05-07T01:47:34;95425.75;;;13.01;77.89
79612;BME280;69094;48.154;11.536;2023-05-07T01:50:01;95434.94;;;13.08;77.28
79612;BME280;69094;48.154;11.536;2023-05-07T01:52:27;95432.56;;;13.07;77.62
79612;BME280;69094;48.154;11.536;2023-05-07T01:54:52;95437.44;;;13.01;77.80
79612;BME280;69094;48.154;11.536;2023-05-07T01:57:18;95430.75;;;12.99;77.08
79612;BME280;69094;48.154;11.536;2023-05-07T01:59:43;95432.91;;;13.05;77.15
79612;BME280;69094;48.154;11.536;2023-05-07T02:02:08;95433.59;;;13.02;77.75
79612;BME280;69094;48.154;11.536;2023-05-07T02:04:34;95431.44;;;12.96;78.37
79612;BME280;69094;48.154;11.536;2023-05-07T02:07:00;95439.97;;;12.94;78.39
79612;BME280;69094;48.154;11.536;2023-05-07T02:09:25;95445.56;;;12.98;78.19
79612;BME280;69094;48.154;11.536;2023-05-07T02:11:50;95437.81;;;13.00;77.90
79612;BME280;69094;48.154;11.536;2023-05-07T02:14:16;95444.75;;;12.97;78.04
79612;BME280;69094;48.154;11.536;2023-05-07T02:16:41;95442.38;;;12.96;77.78
79612;BME280;69094;48.154;11.536;2023-05-07T02:19:07;95434.41;;;12.78;78.01
79612;BME280;69094;48.154;11.536;2023-05-07T02:21:32;95444.53;;;12.65;78.04
79612;BME280;69094;48.154;11.536;2023-05-07T02:23:57;95441.34;;;12.51;78.83
79612;BME280;69094;48.154;11.536;2023-05-07T02:26:23;95442.81;;;12.48;78.85
79612;BME280;69094;48.154;11.536;2023-05-07T02:28:48;95440.22;;;12.40;79.09
79612;BME280;69094;48.154;11.536;2023-05-07T02:31:14;95437.34;;;12.36;79.47
79612;BME280;69094;48.154;11.536;2023-05-07T02:33:39;95438.72;;;12.42;79.43
79612;BME280;69094;48.154;11.536;2023-05-07T02:36:06;95427.22;;;12.37;79.03
79612;BME280;69094;48.154;11.536;2023-05-07T02:38:32;95432.03;;;12.40;79.23
79612;BME280;69094;48.154;11.536;2023-05-07T02:40:57;95437.69;;;12.35;79.79
79612;BME280;69094;48.154;11.536;2023-05-07T02:43:22;95447.13;;;12.25;79.79
79612;BME280;69094;48.154;11.536;2023-05-07T02:45:47;95439.16;;;12.20;79.94
79612;BME280;69094;48.154;11.536;2023-05-07T02:48:13;95442.06;;;12.15;80.01
79612;BME280;69094;48.154;11.536;2023-05-07T02:50:38;95441.97;;;12.11;80.45
79612;BME280;69094;48.154;11.536;2023-05-07T02:53:03;95441.97;;;12.11;80.15
79612;BME280;69094;48.154;11.536;2023-05-07T02:55:29;95447.53;;;12.02;80.74
79612;BME280;69094;48.154;11.536;2023-05-07T02:57:55;95446.91;;;11.97;80.91
79612;BME280;69094;48.154;11.536;2023-05-07T03:00:20;95433.84;;;11.90;81.29
79612;BME280;69094;48.154;11.536;2023-05-07T03:02:46;95431.31;;;11.85;81.19
79612;BME280;69094;48.154;11.536;2023-05-07T03:05:11;95437.31;;;11.78;81.54
79612;BME280;69094;48.154;11.536;2023-05-07T03:07:38;95440.69;;;11.75;81.25
79612;BME280;69094;48.154;11.536;2023-05-07T03:10:04;95439.09;;;11.74;81.35
79612;BME280;69094;48.154;11.536;2023-05-07T03:12:30;95430.00;;;11.70;81.13
79612;BME280;69094;48.154;11.536;2023-05-07T03:14:56;95437.84;;;11.72;81.28
79612;BME280;69094;48.154;11.536;2023-05-07T03:17:21;95435.09;;;11.72;81.13
79612;BME280;69094;48.154;11.536;2023-05-07T03:19:46;95440.31;;;11.64;81.42
79612;BME280;69094;48.154;11.536;2023-05-07T03:22:12;95436.00;;;11.63;81.47
79612;BME280;69094;48.154;11.536;2023-05-07T03:24:37;95438.66;;;11.84;81.13
79612;BME280;69094;48.154;11.536;2023-05-07T03:27:03;95435.81;;;11.81;80.86
79612;BME280;69094;48.154;11.536;2023-05-07T03:29:28;95425.81;;;11.73;80.72
79612;BME280;69094;48.154;11.536;2023-05-07T03:31:53;95433.38;;;11.67;81.04
79612;BME280;69094;48.154;11.536;2023-05-07T03:34:19;95424.66;;;11.74;80.99
79612;BME280;69094;48.154;11.536;2023-05-07T03:36:48;95429.50;;;11.89;80.75
79612;BME280;69094;48.154;11.536;2023-05-07T03:39:13;95428.19;;;11.95;80.22
79612;BME280;69094;48.154;11.536;2023-05-07T03:41:39;95432.59;;;12.00;80.05
79612;BME280;69094;48.154;11.536;2023-05-07T03:44:04;95432.41;;;12.05;80.70
79612;BME280;69094;48.154;11.536;2023-05-07T03:46:29;95435.56;;;12.07;80.16
79612;BME280;69094;48.154;11.536;2023-05-07T03:48:55;95431.47;;;12.01;80.21
79612;BME280;69094;48.154;11.536;2023-05-07T03:51:20;95432.19;;;12.10;80.16
79612;BME280;69094;48.154;11.536;2023-05-07T03:53:45;95440.50;;;12.14;80.49
79612;BME280;69094;48.154;11.536;2023-05-07T03:56:11;95430.72;;;12.13;79.95
79612;BME280;69094;48.154;11.536;2023-05-07T03:58:36;95428.91;;;12.17;79.98
79612;BME280;69094;48.154;11.536;2023-05-07T04:01:02;95441.28;;;12.14;79.90
79612;BME280;69094;48.154;11.536;2023-05-07T04:03:27;95440.50;;;12.14;80.18
79612;BME280;69094;48.154;11.536;2023-05-07T04:05:53;95441.41;;;12.18;79.55
79612;BME280;69094;48.154;11.536;2023-05-07T04:08:18;95452.44;;;12.21;79.64
79612;BME280;69094;48.154;11.536;2023-05-07T04:10:43;95447.13;;;12.25;79.42
79612;BME280;69094;48.154;11.536;2023-05-07T04:13:09;95451.66;;;12.21;79.70
79612;BME280;69094;48.154;11.536;2023-05-07T04:15:35;95454.69;;;12.19;79.38
79612;BME280;69094;48.154;11.536;2023-05-07T04:18:01;95451.16;;;12.06;79.62
79612;BME280;69094;48.154;11.536;2023-05-07T04:20:26;95456.03;;;12.01;80.11
79612;BME280;69094;48.154;11.536;2023-05-07T04:22:52;95461.56;;;11.92;79.93
79612;BME280;69094;48.154;11.536;2023-05-07T04:25:17;95469.09;;;11.95;79.98
79612;BME280;69094;48.154;11.536;2023-05-07T04:27:42;95466.00;;;11.97;80.00
79612;BME280;69094;48.154;11.536;2023-05-07T04:30:08;95472.28;;;12.10;79.76
79612;BME280;69094;48.154;11.536;2023-05-07T04:32:33;95475.94;;;12.14;79.18
79612;BME280;69094;48.154;11.536;2023-05-07T04:34:59;95468.59;;;12.26;78.78
79612;BME280;69094;48.154;11.536;2023-05-07T04:37:25;95467.94;;;12.42;78.14
79612;BME280;69094;48.154;11.536;2023-05-07T04:39:51;95463.63;;;12.53;77.79
79612;BME280;69094;48.154;11.536;2023-05-07T04:42:17;95464.44;;;12.66;76.98
79612;BME280;69094;48.154;11.536;2023-05-07T04:44:45;95468.19;;;12.74;76.71
79612;BME280;69094;48.154;11.536;2023-05-07T04:47:11;95465.38;;;12.70;76.42
79612;BME280;69094;48.154;11.536;2023-05-07T04:49:38;95463.19;;;12.88;76.36
79612;BME280;69094;48.154;11.536;2023-05-07T04:52:04;95463.44;;;12.83;75.69
79612;BME280;69094;48.154;11.536;2023-05-07T04:54:29;95460.94;;;12.78;76.09
79612;BME280;69094;48.154;11.536;2023-05-07T04:56:55;95469.44;;;12.88;75.68
79612;BME280;69094;48.154;11.536;2023-05-07T04:59:20;95473.44;;;12.91;75.49
79612;BME280;69094;48.154;11.536;2023-05-07T05:01:45;95468.97;;;12.74;75.86
79612;BME280;69094;48.154;11.536;2023-05-07T05:04:10;95476.94;;;12.79;75.95
79612;BME280;69094;48.154;11.536;2023-05-07T05:06:36;95477.53;;;12.73;76.25
79612;BME280;69094;48.154;11.536;2023-05-07T05:09:01;95475.69;;;12.77;76.15
79612;BME280;69094;48.154;11.536;2023-05-07T05:11:27;95478.66;;;12.71;76.23
79612;BME280;69094;48.154;11.536;2023-05-07T05:13:52;95479.81;;;12.70;76.41
79612;BME280;69094;48.154;11.536;2023-05-07T05:16:17;95475.50;;;12.69;76.46
79612;BME280;69094;48.154;11.536;2023-05-07T05:18:43;95476.28;;;12.82;76.04
79612;BME280;69094;48.154;11.536;2023-05-07T05:21:08;95466.03;;;12.91;75.01
79612;BME280;69094;48.154;11.536;2023-05-07T05:23:33;95471.72;;;12.99;74.82
79612;BME280;69094;48.154;11.536;2023-05-07T05:25:59;95465.56;;;13.02;74.56
79612;BME280;69094;48.154;11.536;2023-05-07T05:28:24;95474.56;;;13.02;74.19
79612;BME280;69094;48.154;11.536;2023-05-07T05:30:50;95476.47;;;13.14;74.27
79612;BME280;69094;48.154;11.536;2023-05-07T05:33:15;95469.91;;;13.27;73.11
79612;BME280;69094;48.154;11.536;2023-05-07T05:35:41;95465.00;;;13.33;73.50
79612;BME280;69094;48.154;11.536;2023-05-07T05:38:07;95475.19;;;13.48;73.00
79612;BME280;69094;48.154;11.536;2023-05-07T05:40:32;95482.78;;;13.67;72.48
79612;BME280;69094;48.154;11.536;2023-05-07T05:42:58;95475.00;;;13.82;72.41
79612;BME280;69094;48.154;11.536;2023-05-07T05:45:24;95476.44;;;13.91;72.45
79612;BME280;69094;48.154;11.536;2023-05-07T05:47:49;95482.94;;;14.15;72.04
79612;BME280;69094;48.154;11.536;2023-05-07T05:50:15;95482.63;;;14.32;70.34
79612;BME280;69094;48.154;11.536;2023-05-07T05:52:40;95476.72;;;14.46;69.90
79612;BME280;69094;48.154;11.536;2023-05-07T05:55:06;95477.47;;;14.59;70.11
79612;BME280;69094;48.154;11.536;2023-05-07T05:57:32;95469.97;;;14.72;68.89
79612;BME280;69094;48.154;11.536;2023-05-07T05:59:57;95473.41;;;14.69;68.59
79612;BME280;69094;48.154;11.536;2023-05-07T06:02:23;95473.69;;;14.63;68.59
79612;BME280;69094;48.154;11.536;2023-05-07T06:04:48;95471.00;;;14.83;67.82
79612;BME280;69094;48.154;11.536;2023-05-07T06:07:14;95477.38;;;14.87;67.74
79612;BME280;69094;48.154;11.536;2023-05-07T06:09:39;95474.84;;;14.78;67.99
79612;BME280;69094;48.154;11.536;2023-05-07T06:12:05;95482.59;;;14.76;67.99
79612;BME280;69094;48.154;11.536;2023-05-07T06:14:30;95483.56;;;14.68;68.20
79612;BME280;69094;48.154;11.536;2023-05-07T06:16:56;95476.56;;;14.71;68.30
79612;BME280;69094;48.154;11.536;2023-05-07T06:19:22;95481.59;;;15.00;68.38
79612;BME280;69094;48.154;11.536;2023-05-07T06:21:49;95479.56;;;15.13;66.52
79612;BME280;69094;48.154;11.536;2023-05-07T06:24:14;95479.97;;;15.31;67.14
79612;BME280;69094;48.154;11.536;2023-05-07T06:26:40;95471.50;;;15.56;66.37
79612;BME280;69094;48.154;11.536;2023-05-07T06:29:06;95469.31;;;15.65;65.02
79612;BME280;69094;48.154;11.536;2023-05-07T06:31:31;95485.19;;;15.91;64.37
79612;BME280;69094;48.154;11.536;2023-05-07T06:33:57;95475.59;;;16.01;62.63
79612;BME280;69094;48.154;11.536;2023-05-07T06:36:22;95480.41;;;16.27;63.00
79612;BME280;69094;48.154;11.536;2023-05-07T06:38:48;95486.28;;;16.71;61.96
79612;BME280;69094;48.154;11.536;2023-05-07T06:41:13;95472.75;;;17.05;60.00
79612;BME280;69094;48.154;11.536;2023-05-07T06:43:39;95480.84;;;17.21;58.62
79612;BME280;69094;48.154;11.536;2023-05-07T06:46:04;95489.38;;;17.12;57.67
79612;BME280;69094;48.154;11.536;2023-05-07T06:48:30;95486.88;;;17.30;57.44
79612;BME280;69094;48.154;11.536;2023-05-07T06:50:55;95498.25;;;17.82;56.65
79612;BME280;69094;48.154;11.536;2023-05-07T06:53:22;95493.56;;;18.16;55.99
79612;BME280;69094;48.154;11.536;2023-05-07T06:55:48;95496.72;;;18.56;53.86
79612;BME280;69094;48.154;11.536;2023-05-07T06:58:13;95495.81;;;18.78;53.15
79612;BME280;69094;48.154;11.536;2023-05-07T07:00:39;95502.00;;;19.09;51.89
79612;BME280;69094;48.154;11.536;2023-05-07T07:03:06;95496.78;;;19.48;51.51
79612;BME280;69094;48.154;11.536;2023-05-07T07:05:31;95493.13;;;19.37;51.04
79612;BME280;69094;48.154;11.536;2023-05-07T07:07:56;95489.28;;;19.49;50.04
79612;BME280;69094;48.154;11.536;2023-05-07T07:10:22;95498.22;;;19.90;49.83
79612;BME280;69094;48.154;11.536;2023-05-07T07:12:49;95497.03;;;19.91;50.64
79612;BME280;69094;48.154;11.536;2023-05-07T07:15:14;95493.41;;;19.73;49.17
79612;BME280;69094;48.154;11.536;2023-05-07T07:17:40;95496.25;;;19.32;50.80
79612;BME280;69094;48.154;11.536;2023-05-07T07:20:06;95497.56;;;18.97;51.82
79612;BME280;69094;48.154;11.536;2023-05-07T07:22:32;95496.22;;;19.84;49.78
79612;BME280;69094;48.154;11.536;2023-05-07T07:24:57;95492.59;;;19.69;49.06
79612;BME280;69094;48.154;11.536;2023-05-07T07:27:23;95493.28;;;19.03;52.44
79612;BME280;69094;48.154;11.536;2023-05-07T07:29:48;95485.53;;;19.82;50.41
79612;BME280;69094;48.154;11.536;2023-05-07T07:32:13;95502.50;;;20.86;46.92
79612;BME280;69094;48.154;11.536;2023-05-07T07:34:39;95496.59;;;21.02;46.13
79612;BME280;69094;48.154;11.536;2023-05-07T07:37:04;95502.13;;;21.20;45.67
79612;BME280;69094;48.154;11.536;2023-05-07T07:39:34;95498.34;;;20.19;47.60
79612;BME280;69094;48.154;11.536;2023-05-07T07:42:02;95504.63;;;20.09;47.56
79612;BME280;69094;48.154;11.536;2023-05-07T07:44:27;95499.41;;;19.89;48.98
79612;BME280;69094;48.154;11.536;2023-05-07T07:46:53;95510.44;;;19.86;49.61
79612;BME280;69094;48.154;11.536;2023-05-07T07:49:18;95506.09;;;20.97;47.01
79612;BME280;69094;48.154;11.536;2023-05-07T07:51:44;95513.59;;;20.90;47.17
79612;BME280;69094;48.154;11.536;2023-05-07T07:54:09;95510.84;;;21.58;45.70
79612;BME280;69094;48.154;11.536;2023-05-07T07:56:35;95506.34;;;22.10;44.78
79612;BME280;69094;48.154;11.536;2023-05-07T07:59:01;95516.91;;;22.51;44.28
79612;BME280;69094;48.154;11.536;2023-05-07T08:01:26;95514.09;;;22.58;42.48
79612;BME280;69094;48.154;11.536;2023-05-07T08:03:52;95519.94;;;23.38;42.47
79612;BME280;69094;48.154;11.536;2023-05-07T08:06:18;95513.25;;;23.77;39.78
79612;BME280;69094;48.154;11.536;2023-05-07T08:08:43;95512.19;;;23.15;40.48
79612;BME280;69094;48.154;11.536;2023-05-07T08:11:09;95512.47;;;23.28;40.94
79612;BME280;69094;48.154;11.536;2023-05-07T08:13:34;95511.63;;;23.38;41.34
79612;BME280;69094;48.154;11.536;2023-05-07T08:16:00;95515.91;;;22.87;41.59
79612;BME280;69094;48.154;11.536;2023-05-07T08:18:25;95520.41;;;23.29;41.47
79612;BME280;69094;48.154;11.536;2023-05-07T08:20:53;95525.16;;;23.77;40.60
79612;BME280;69094;48.154;11.536;2023-05-07T08:23:18;95521.50;;;23.88;39.62
79612;BME280;69094;48.154;11.536;2023-05-07T08:25:44;95519.66;;;24.77;38.45
79612;BME280;69094;48.154;11.536;2023-05-07T08:28:09;95522.66;;;24.62;38.23
79612;BME280;69094;48.154;11.536;2023-05-07T08:30:35;95522.41;;;24.15;39.77
79612;BME280;69094;48.154;11.536;2023-05-07T08:33:00;95521.56;;;23.80;39.74
79612;BME280;69094;48.154;11.536;2023-05-07T08:35:26;95509.13;;;24.30;39.67
79612;BME280;69094;48.154;11.536;2023-05-07T08:37:52;95514.13;;;24.42;38.06
79612;BME280;69094;48.154;11.536;2023-05-07T08:40:18;95514.47;;;24.79;37.94
79612;BME280;69094;48.154;11.536;2023-05-07T08:42:44;95519.88;;;25.44;34.84
79612;BME280;69094;48.154;11.536;2023-05-07T08:45:10;95520.63;;;23.94;38.01
79612;BME280;69094;48.154;11.536;2023-05-07T08:47:43;95521.59;;;24.49;38.88
79612;BME280;69094;48.154;11.536;2023-05-07T08:50:10;95530.28;;;23.30;40.32
79612;BME280;69094;48.154;11.536;2023-05-07T08:52:36;95516.25;;;22.99;39.02
79612;BME280;69094;48.154;11.536;2023-05-07T08:55:02;95526.53;;;22.29;42.71
79612;BME280;69094;48.154;11.536;2023-05-07T08:57:28;95521.16;;;22.74;42.16
79612;BME280;69094;48.154;11.536;2023-05-07T08:59:53;95525.72;;;23.99;40.08
79612;BME280;69094;48.154;11.536;2023-05-07T09:02:19;95521.63;;;25.07;37.18
79612;BME280;69094;48.154;11.536;2023-05-07T09:04:44;95529.50;;;25.86;35.84
79612;BME280;69094;48.154;11.536;2023-05-07T09:07:09;95522.25;;;26.56;34.48
79612;BME280;69094;48.154;11.536;2023-05-07T09:09:35;95528.81;;;25.78;35.26
79612;BME280;69094;48.154;11.536;2023-05-07T09:12:00;95528.38;;;26.27;35.33
79612;BME280;69094;48.154;11.536;2023-05-07T09:14:27;95521.06;;;25.66;34.13
79612;BME280;69094;48.154;11.536;2023-05-07T09:16:53;95517.97;;;26.08;33.72
79612;BME280;69094;48.154;11.536;2023-05-07T09:19:26;95530.81;;;26.65;33.01
79612;BME280;69094;48.154;11.536;2023-05-07T09:22:02;95532.16;;;27.13;32.49
79612;BME280;69094;48.154;11.536;2023-05-07T09:24:28;95527.06;;;27.28;33.67
79612;BME280;69094;48.154;11.536;2023-05-07T09:26:57;95517.47;;;27.45;32.88
79612;BME280;69094;48.154;11.536;2023-05-07T09:29:23;95525.03;;;27.28;30.98
79612;BME280;69094;48.154;11.536;2023-05-07T09:31:48;95518.19;;;26.77;32.90
79612;BME280;69094;48.154;11.536;2023-05-07T09:34:14;95520.81;;;27.20;31.86
79612;BME280;69094;48.154;11.536;2023-05-07T09:36:39;95511.28;;;27.01;32.05
79612;BME280;69094;48.154;11.536;2023-05-07T09:39:05;95511.50;;;27.43;28.93
79612;BME280;69094;48.154;11.536;2023-05-07T09:41:30;95513.69;;;27.68;28.56
79612;BME280;69094;48.154;11.536;2023-05-07T09:43:59;95517.97;;;27.24;29.83
79612;BME280;69094;48.154;11.536;2023-05-07T09:46:29;95520.06;;;26.24;31.60
79612;BME280;69094;48.154;11.536;2023-05-07T09:48:57;95500.63;;;25.53;33.18
79612;BME280;69094;48.154;11.536;2023-05-07T09:51:50;95504.34;;;25.66;32.91
79612;BME280;69094;48.154;11.536;2023-05-07T09:54:17;95503.22;;;25.64;31.10
79612;BME280;69094;48.154;11.536;2023-05-07T09:56:44;95501.72;;;25.59;31.18
79612;BME280;69094;48.154;11.536;2023-05-07T09:59:13;95503.09;;;25.71;31.93
79612;BME280;69094;48.154;11.536;2023-05-07T10:01:41;95513.34;;;26.21;31.74
79612;BME280;69094;48.154;11.536;2023-05-07T10:04:07;95508.84;;;27.03;30.77
79612;BME280;69094;48.154;11.536;2023-05-07T10:06:36;95508.31;;;27.09;29.85
79612;BME280;69094;48.154;11.536;2023-05-07T10:09:03;95512.66;;;26.93;30.27
79612;BME280;69094;48.154;11.536;2023-05-07T10:11:32;95515.69;;;27.19;30.76
79612;BME280;69094;48.154;11.536;2023-05-07T10:13:57;95518.50;;;27.52;29.68
79612;BME280;69094;48.154;11.536;2023-05-07T10:16:23;95515.16;;;27.57;28.26
79612;BME280;69094;48.154;11.536;2023-05-07T10:18:49;95519.91;;;27.07;29.08
79612;BME280;69094;48.154;11.536;2023-05-07T10:21:21;95517.31;;;26.00;30.81
79612;BME280;69094;48.154;11.536;2023-05-07T10:23:51;95513.91;;;26.12;32.14
79612;BME280;69094;48.154;11.536;2023-05-07T10:26:20;95510.34;;;25.41;31.01
79612;BME280;69094;48.154;11.536;2023-05-07T10:28:51;95508.91;;;25.06;31.73
79612;BME280;69094;48.154;11.536;2023-05-07T10:31:39;95509.59;;;26.08;30.03
79612;BME280;69094;48.154;11.536;2023-05-07T10:34:12;95518.41;;;27.02;28.99
79612;BME280;69094;48.154;11.536;2023-05-07T10:36:39;95518.31;;;26.90;29.88
79612;BME280;69094;48.154;11.536;2023-05-07T10:39:05;95519.06;;;26.34;29.56
79612;BME280;69094;48.154;11.536;2023-05-07T10:41:31;95524.56;;;27.14;29.78
79612;BME280;69094;48.154;11.536;2023-05-07T10:43:56;95517.78;;;27.80;28.17
79612;BME280;69094;48.154;11.536;2023-05-07T10:46:22;95519.84;;;28.09;27.33
79612;BME280;69094;48.154;11.536;2023-05-07T10:51:29;95510.31;;;28.35;26.17
79612;BME280;69094;48.154;11.536;2023-05-07T10:56:44;95515.56;;;28.04;27.67
79612;BME280;69094;48.154;11.536;2023-05-07T11:02:05;95508.75;;;26.51;29.70
79612;BME280;69094;48.154;11.536;2023-05-07T11:04:32;95512.47;;;26.84;30.28
79612;BME280;69094;48.154;11.536;2023-05-07T11:15:05;95509.03;;;26.76;29.50
79612;BME280;69094;48.154;11.536;2023-05-07T11:17:31;95504.50;;;26.66;28.75
79612;BME280;69094;48.154;11.536;2023-05-07T11:20:03;95505.31;;;27.36;29.34
79612;BME280;69094;48.154;11.536;2023-05-07T11:25:05;95495.81;;;26.40;30.16
79612;BME280;69094;48.154;11.536;2023-05-07T11:27:31;95503.81;;;25.01;33.14
79612;BME280;69094;48.154;11.536;2023-05-07T11:29:56;95501.63;;;24.58;35.02
79612;BME280;69094;48.154;11.536;2023-05-07T11:32:23;95493.75;;;24.18;35.16
79612;BME280;69094;48.154;11.536;2023-05-07T11:34:53;95488.81;;;24.95;33.41
79612;BME280;69094;48.154;11.536;2023-05-07T11:37:19;95497.75;;;25.80;32.57
79612;BME280;69094;48.154;11.536;2023-05-07T11:39:45;95498.25;;;26.78;30.47
79612;BME280;69094;48.154;11.536;2023-05-07T11:42:33;95489.09;;;25.51;31.08
79612;BME280;69094;48.154;11.536;2023-05-07T11:44:59;95489.09;;;26.38;30.87
79612;BME280;69094;48.154;11.536;2023-05-07T11:47:25;95493.31;;;26.06;30.73
79612;BME280;69094;48.154;11.536;2023-05-07T11:49:52;95490.06;;;25.88;29.50
79612;BME280;69094;48.154;11.536;2023-05-07T11:52:19;95484.22;;;26.42;29.01
79612;BME280;69094;48.154;11.536;2023-05-07T11:54:52;95488.22;;;26.81;28.82
79612;BME280;69094;48.154;11.536;2023-05-07T11:57:18;95499.56;;;26.90;29.35
79612;BME280;69094;48.154;11.536;2023-05-07T11:59:43;95492.75;;;26.91;27.81
79612;BME280;69094;48.154;11.536;2023-05-07T12:02:15;95494.31;;;26.76;28.29
79612;BME280;69094;48.154;11.536;2023-05-07T12:04:41;95486.94;;;26.66;29.90
79612;BME280;69094;48.154;11.536;2023-05-07T12:07:13;95488.75;;;26.56;29.76
79612;BME280;69094;48.154;11.536;2023-05-07T12:09:40;95485.28;;;25.88;30.77
79612;BME280;69094;48.154;11.536;2023-05-07T12:12:06;95478.22;;;26.04;30.50
79612;BME280;69094;48.154;11.536;2023-05-07T12:14:31;95484.38;;;25.71;31.09
79612;BME280;69094;48.154;11.536;2023-05-07T12:16:58;95469.88;;;25.80;29.78
79612;BME280;69094;48.154;11.536;2023-05-07T12:19:28;95471.44;;;25.81;30.55
79612;BME280;69094;48.154;11.536;2023-05-07T12:21:53;95469.00;;;26.27;28.38
79612;BME280;69094;48.154;11.536;2023-05-07T12:24:19;95470.06;;;25.93;28.61
79612;BME280;69094;48.154;11.536;2023-05-07T12:26:44;95463.34;;;26.10;29.48
79612;BME280;69094;48.154;11.536;2023-05-07T12:29:10;95471.44;;;26.05;29.46
79612;BME280;69094;48.154;11.536;2023-05-07T12:31:35;95461.53;;;26.40;29.07
79612;BME280;69094;48.154;11.536;2023-05-07T12:34:00;95464.47;;;26.33;29.10
79612;BME280;69094;48.154;11.536;2023-05-07T12:36:36;95470.50;;;25.91;29.83
79612;BME280;69094;48.154;11.536;2023-05-07T12:39:04;95466.50;;;25.69;31.46
79612;BME280;69094;48.154;11.536;2023-05-07T12:41:30;95466.06;;;25.70;31.69
79612;BME280;69094;48.154;11.536;2023-05-07T12:43:56;95461.41;;;25.87;30.77
79612;BME280;69094;48.154;11.536;2023-05-07T12:46:22;95450.19;;;25.91;30.72
79612;BME280;69094;48.154;11.536;2023-05-07T12:48:48;95454.78;;;26.41;28.96
79612;BME280;69094;48.154;11.536;2023-05-07T12:51:15;95443.97;;;26.03;29.85
79612;BME280;69094;48.154;11.536;2023-05-07T12:53:41;95451.66;;;25.75;30.85
79612;BME280;69094;48.154;11.536;2023-05-07T12:56:09;95445.34;;;25.95;29.08
79612;BME280;69094;48.154;11.536;2023-05-07T12:58:36;95447.75;;;26.13;30.00
79612;BME280;69094;48.154;11.536;2023-05-07T13:01:05;95449.78;;;25.92;29.21
79612;BME280;69094;48.154;11.536;2023-05-07T13:03:35;95451.22;;;25.77;29.48